Time;durP1;ratioP1;P1;durP2;ratioP2;P2;SDS_P1;SDS_P2;PMS_P1;PMS_P2;Temp;Humidity;BMP_temperature;BMP_pressure;BME280_temperature;BME280_humidity;BME280_pressure;Samples;Min_cycle;Max_cycle;Signal;HPM_P1;HPM_P2
2022/07/27 00:01:59;;;;;;;5.80;5.03;;;;;;;28.47;42.90;99965.06;1701888;83;21930;-82
2022/07/27 00:04:25;;;;;;;5.87;5.25;;;;;;;28.47;42.88;99964.47;1701919;83;21071;-82
2022/07/27 00:06:58;;;;;;;5.58;4.97;;;;;;;28.47;42.92;99967.27;1701823;83;21160;-82
2022/07/27 00:09:24;;;;;;;5.92;5.30;;;;;;;28.47;42.90;99964.47;1701857;84;21051;-83
2022/07/27 00:11:51;;;;;;;6.17;5.35;;;;;;;28.48;42.89;99968.84;1703152;82;21125;-82
2022/07/27 00:14:17;;;;;;;6.22;4.62;;;;;;;28.47;42.90;99967.27;1703378;82;20988;-82
2022/07/27 00:16:44;;;;;;;7.03;5.47;;;;;;;28.47;42.88;99970.66;1703709;82;21074;-83
2022/07/27 00:19:11;;;;;;;6.20;5.60;;;;;;;28.46;42.89;99971.84;1703278;82;21705;-82
2022/07/27 00:21:37;;;;;;;6.75;5.28;;;;;;;28.47;42.90;99975.66;1703163;83;20995;-82
2022/07/27 00:24:04;;;;;;;5.55;4.97;;;;;;;28.46;42.90;99983.03;1703459;82;21003;-82
2022/07/27 00:26:30;;;;;;;7.33;5.30;;;;;;;28.46;42.91;99982.44;1703417;83;21549;-82
2022/07/27 00:28:56;;;;;;;6.05;5.03;;;;;;;28.47;42.93;99987.45;1703228;82;21075;-83
2022/07/27 00:31:23;;;;;;;6.28;5.67;;;;;;;28.46;42.96;99989.44;1703320;82;21295;-82
2022/07/27 00:33:49;;;;;;;6.95;5.55;;;;;;;28.47;42.95;99984.65;1703199;84;21086;-82
2022/07/27 00:36:16;;;;;;;6.28;5.60;;;;;;;28.46;42.93;99986.64;1703195;83;21588;-81
2022/07/27 00:38:42;;;;;;;8.35;5.47;;;;;;;28.47;42.94;99980.45;1703405;82;21070;-82
2022/07/27 00:41:10;;;;;;;5.67;5.17;;;;;;;28.46;42.90;99982.44;1703261;82;21023;-82
2022/07/27 00:43:57;;;;;;;6.33;5.58;;;;;;;28.47;42.89;99977.66;1703029;82;21510;-82
2022/07/27 00:46:23;;;;;;;6.60;5.78;;;;;;;28.46;42.90;99987.23;1703298;82;21043;-82
2022/07/27 00:48:49;;;;;;;5.70;5.12;;;;;;;28.45;42.88;99983.63;1703164;83;21016;-83
2022/07/27 00:51:17;;;;;;;6.90;5.20;;;;;;;28.46;42.90;99994.23;1704429;82;20996;-82
2022/07/27 00:53:44;;;;;;;6.03;5.20;;;;;;;28.45;42.89;99998.22;1706175;82;21105;-82
2022/07/27 00:56:10;;;;;;;6.05;5.45;;;;;;;28.45;42.91;99996.22;1705757;82;21599;-82
2022/07/27 00:58:37;;;;;;;7.08;5.85;;;;;;;28.46;42.91;99992.83;1706139;82;20984;-82
2022/07/27 01:01:04;;;;;;;6.10;5.50;;;;;;;28.45;42.92;99992.02;1728775;81;21089;-82
2022/07/27 01:03:30;;;;;;;6.20;5.60;;;;;;;28.45;42.94;100001.81;1728407;83;21076;-82
2022/07/27 01:05:57;;;;;;;6.50;5.90;;;;;;;28.44;42.92;99993.21;1728747;81;21060;-82
2022/07/27 01:08:24;;;;;;;6.83;5.33;;;;;;;28.45;42.94;100000.42;1728793;83;21121;-82
2022/07/27 01:10:51;;;;;;;5.92;5.28;;;;;;;28.44;42.92;99997.41;1728411;81;21658;-83
2022/07/27 01:13:17;;;;;;;8.15;6.05;;;;;;;28.45;42.95;99999.61;1728976;81;21522;-82
2022/07/27 01:15:44;;;;;;;7.12;5.58;;;;;;;28.45;42.97;100013.01;1728960;81;21096;-82
2022/07/27 01:18:12;;;;;;;6.30;5.58;;;;;;;28.45;42.96;100015.81;1728666;81;21112;-82
2022/07/27 01:20:41;;;;;;;6.80;5.72;;;;;;;28.44;43.01;100009.19;1729004;81;22150;-82
2022/07/27 01:23:09;;;;;;;6.30;5.65;;;;;;;28.45;43.00;100016.40;1728799;81;21068;-82
2022/07/27 01:25:36;;;;;;;6.35;5.40;;;;;;;28.44;43.01;100008.59;1750436;80;21007;-83
2022/07/27 01:28:02;;;;;;;6.42;5.60;;;;;;;28.44;43.04;100005.80;1759315;80;20991;-82
2022/07/27 01:30:29;;;;;;;9.38;5.05;;;;;;;28.44;43.07;100002.20;1759380;80;21022;-82
2022/07/27 01:33:07;;;;;;;7.33;6.55;;;;;;;28.44;43.10;100007.80;1759056;81;21189;-82
2022/07/27 01:35:33;;;;;;;6.87;5.40;;;;;;;28.44;43.10;100008.59;1759306;80;21373;-82
2022/07/27 01:38:00;;;;;;;7.00;6.08;;;;;;;28.44;43.08;100012.80;1759107;81;21030;-82
2022/07/27 01:40:26;;;;;;;8.30;6.10;;;;;;;28.44;43.07;100003.59;1759211;80;21034;-82
2022/07/27 01:42:53;;;;;;;7.50;5.87;;;;;;;28.43;43.09;100002.79;1759367;80;20991;-82
2022/07/27 01:45:21;;;;;;;8.35;6.35;;;;;;;28.43;43.10;100003.41;1758931;80;21434;-84
2022/07/27 01:47:48;;;;;;;6.80;5.30;;;;;;;28.42;43.09;99995.61;1759421;81;21019;-82
2022/07/27 01:50:14;;;;;;;7.28;6.10;;;;;;;28.42;43.08;99999.81;1759303;80;21056;-82
2022/07/27 01:52:40;;;;;;;6.87;5.87;;;;;;;28.43;43.11;100002.02;1752314;80;21082;-82
2022/07/27 01:55:09;;;;;;;8.20;6.65;;;;;;;28.42;43.13;99995.61;1723618;82;21104;-83
2022/07/27 01:57:36;;;;;;;9.05;5.87;;;;;;;28.42;43.11;99992.81;1723475;83;21150;-83
2022/07/27 02:00:05;;;;;;;6.70;5.78;;;;;;;28.42;43.11;99992.81;1723121;82;20970;-82
2022/07/27 02:02:38;;;;;;;6.50;5.37;;;;;;;28.42;43.11;99996.20;1723483;83;21580;-82
2022/07/27 02:05:05;;;;;;;6.30;5.67;;;;;;;28.42;43.14;99994.22;1751916;81;21022;-82
2022/07/27 02:07:31;;;;;;;7.30;5.78;;;;;;;28.42;43.14;99994.22;1751606;80;21019;-82
2022/07/27 02:09:58;;;;;;;6.65;5.92;;;;;;;28.41;43.16;99992.60;1751836;81;20999;-82
2022/07/27 02:12:37;;;;;;;7.53;6.47;;;;;;;28.42;43.15;100001.20;1751746;80;20983;-82
2022/07/27 02:15:10;;;;;;;7.72;6.28;;;;;;;28.42;43.15;99996.20;1751726;80;20939;-82
2022/07/27 02:17:36;;;;;;;6.97;6.03;;;;;;;28.42;43.16;99997.61;1751561;80;21035;-83
2022/07/27 02:20:04;;;;;;;7.45;6.03;;;;;;;28.42;43.15;99994.80;1723544;82;21073;-82
2022/07/27 02:22:32;;;;;;;6.35;5.35;;;;;;;28.42;43.17;99993.41;1751611;80;21529;-82
2022/07/27 02:24:58;;;;;;;6.17;5.58;;;;;;;28.41;43.17;99987.00;1723422;81;21013;-82
2022/07/27 02:27:25;;;;;;;7.05;5.80;;;;;;;28.41;43.15;99996.80;1751979;80;20967;-81
2022/07/27 02:29:52;;;;;;;6.60;5.97;;;;;;;28.40;43.16;99997.98;1751533;80;21470;-82
2022/07/27 02:32:19;;;;;;;9.23;5.92;;;;;;;28.40;43.16;99996.59;1751640;80;21070;-82
2022/07/27 02:34:46;;;;;;;6.90;6.08;;;;;;;28.40;43.15;99997.98;1751769;80;21180;-82
2022/07/27 02:37:18;;;;;;;6.70;5.90;;;;;;;28.41;43.16;99998.79;1751487;80;21556;-82
2022/07/27 02:39:44;;;;;;;7.78;5.67;;;;;;;28.40;43.16;99999.38;1751915;80;21038;-82
2022/07/27 02:42:11;;;;;;;7.30;6.22;;;;;;;28.41;43.17;100000.19;1723428;81;21061;-82
2022/07/27 02:44:37;;;;;;;8.05;6.80;;;;;;;28.41;43.19;100001.00;1751538;80;21007;-82
2022/07/27 02:47:04;;;;;;;8.25;5.95;;;;;;;28.41;43.18;100002.98;1751645;80;21647;-83
2022/07/27 02:49:30;;;;;;;6.87;6.25;;;;;;;28.40;43.16;100010.58;1751742;80;21073;-83
2022/07/27 02:51:57;;;;;;;6.78;6.03;;;;;;;28.41;43.18;100002.98;1751409;80;21494;-82
2022/07/27 02:54:31;;;;;;;6.92;6.22;;;;;;;28.41;43.16;100009.39;1751543;80;21553;-82
2022/07/27 02:56:59;;;;;;;7.17;5.85;;;;;;;28.41;43.18;100012.78;1751870;80;21054;-82
2022/07/27 02:59:25;;;;;;;8.48;6.15;;;;;;;28.41;43.17;100008.58;1751355;80;21180;-81
2022/07/27 03:01:52;;;;;;;6.80;5.85;;;;;;;28.41;43.19;100011.38;1751776;80;21460;-82
2022/07/27 03:04:18;;;;;;;7.30;6.50;;;;;;;28.40;43.19;100007.78;1751818;81;21044;-82
2022/07/27 03:06:44;;;;;;;7.58;6.67;;;;;;;28.41;43.18;100009.98;1751533;80;21074;-82
2022/07/27 03:09:11;;;;;;;7.20;6.17;;;;;;;28.40;43.17;100011.17;1751617;80;21003;-82
2022/07/27 03:11:38;;;;;;;6.80;6.10;;;;;;;28.39;43.19;100015.18;1752056;80;21484;-81
2022/07/27 03:14:04;;;;;;;8.68;6.28;;;;;;;28.40;43.22;100012.56;1754502;80;21054;-81
2022/07/27 03:16:30;;;;;;;6.90;6.12;;;;;;;28.40;43.23;100011.17;1754879;81;21065;-82
2022/07/27 03:18:57;;;;;;;8.08;6.40;;;;;;;28.40;43.24;100017.57;1754721;80;21084;-82
2022/07/27 03:21:24;;;;;;;9.38;5.92;;;;;;;28.39;43.25;100015.95;1754490;80;21045;-82
2022/07/27 03:23:50;;;;;;;8.20;6.08;;;;;;;28.40;43.29;100020.95;1754706;80;22156;-82
2022/07/27 03:26:18;;;;;;;6.58;5.97;;;;;;;28.40;43.26;100020.95;1754570;80;21056;-82
2022/07/27 03:28:44;;;;;;;7.25;6.42;;;;;;;28.40;43.25;100022.36;1754230;80;21553;-82
2022/07/27 03:31:11;;;;;;;7.20;6.33;;;;;;;28.40;43.26;100027.95;1754410;80;21014;-82
2022/07/27 03:33:37;;;;;;;7.08;6.37;;;;;;;28.40;43.28;100026.55;1754599;81;21116;-82
2022/07/27 03:36:04;;;;;;;7.35;6.65;;;;;;;28.41;43.28;100026.77;1726637;80;21131;-82
2022/07/27 03:38:30;;;;;;;6.90;6.22;;;;;;;28.41;43.28;100019.77;1754547;80;21551;-82
2022/07/27 03:40:57;;;;;;;6.95;6.00;;;;;;;28.40;43.28;100018.16;1754489;80;21002;-82
2022/07/27 03:43:24;;;;;;;8.28;6.35;;;;;;;28.40;43.31;100013.37;1754368;81;21077;-82
2022/07/27 03:45:50;;;;;;;7.28;6.12;;;;;;;28.40;43.28;100019.56;1754834;81;21065;-82
2022/07/27 03:48:16;;;;;;;7.25;6.55;;;;;;;28.41;43.25;100023.97;1754726;80;21942;-82
2022/07/27 03:50:43;;;;;;;8.58;6.58;;;;;;;28.39;43.30;100029.17;1754384;81;21565;-82
2022/07/27 03:53:09;;;;;;;7.25;6.05;;;;;;;28.40;43.30;100032.95;1753128;81;21283;-82
2022/07/27 03:55:36;;;;;;;8.23;6.15;;;;;;;28.41;43.29;100035.16;1752914;81;21020;-82
2022/07/27 03:58:02;;;;;;;7.85;6.03;;;;;;;28.40;43.31;100033.55;1731230;82;21057;-82
2022/07/27 04:00:28;;;;;;;7.90;6.58;;;;;;;28.40;43.30;100039.14;1752874;81;20983;-82
2022/07/27 04:02:55;;;;;;;7.50;6.65;;;;;;;28.40;43.30;100047.54;1731247;82;21008;-82
2022/07/27 04:05:21;;;;;;;6.75;6.10;;;;;;;28.40;43.29;100052.55;1752684;81;21118;-81
2022/07/27 04:07:48;;;;;;;7.10;6.37;;;;;;;28.40;43.30;100051.73;1731240;82;21049;-81
2022/07/27 04:10:14;;;;;;;8.38;6.37;;;;;;;28.41;43.31;100049.16;1752907;81;21059;-82
2022/07/27 04:12:41;;;;;;;8.20;6.42;;;;;;;28.40;43.33;100042.75;1730956;82;21173;-81
2022/07/27 04:15:08;;;;;;;7.60;6.20;;;;;;;28.40;43.31;100044.15;1752805;81;21474;-82
2022/07/27 04:17:34;;;;;;;9.33;6.62;;;;;;;28.40;43.33;100049.75;1731152;82;21037;-82
2022/07/27 04:20:00;;;;;;;8.13;6.50;;;;;;;28.39;43.33;100049.53;1752672;81;21020;-82
2022/07/27 04:22:27;;;;;;;7.00;6.30;;;;;;;28.40;43.32;100050.34;1731294;82;21084;-82
2022/07/27 04:24:53;;;;;;;9.08;6.95;;;;;;;28.41;43.31;100050.55;1752833;81;20949;-82
2022/07/27 04:27:20;;;;;;;7.42;6.60;;;;;;;28.41;43.29;100044.95;1730718;82;21100;-82
2022/07/27 04:29:46;;;;;;;9.33;6.40;;;;;;;28.40;43.29;100041.94;1752802;81;21534;-82
2022/07/27 04:32:13;;;;;;;8.20;6.25;;;;;;;28.40;43.27;100038.55;1731151;82;21092;-82
2022/07/27 04:34:39;;;;;;;6.80;6.10;;;;;;;28.40;43.28;100039.95;1752561;81;21028;-82
2022/07/27 04:37:06;;;;;;;7.00;6.33;;;;;;;28.40;43.28;100045.55;1731284;82;21169;-82
2022/07/27 04:39:32;;;;;;;6.92;6.22;;;;;;;28.39;43.29;100042.53;1752706;81;21286;-82
2022/07/27 04:41:59;;;;;;;8.20;6.97;;;;;;;28.39;43.26;100038.34;1730962;82;21037;-82
2022/07/27 04:44:25;;;;;;;9.40;6.33;;;;;;;28.40;43.25;100040.55;1752698;81;21502;-82
2022/07/27 04:46:57;;;;;;;7.80;6.45;;;;;;;28.40;43.27;100032.95;1730877;82;21588;-82
2022/07/27 04:49:24;;;;;;;8.00;6.75;;;;;;;28.40;43.27;100032.95;1752271;81;21914;-82
2022/07/27 04:51:50;;;;;;;7.40;6.25;;;;;;;28.40;43.23;100032.15;1730980;82;21108;-83
2022/07/27 04:54:17;;;;;;;6.62;5.83;;;;;;;28.40;43.25;100033.55;1754759;81;21007;-83
2022/07/27 04:56:43;;;;;;;7.08;6.37;;;;;;;28.40;43.28;100031.56;1754564;81;21027;-82
2022/07/27 04:59:10;;;;;;;8.70;6.47;;;;;;;28.40;43.33;100032.95;1754716;81;21031;-83
2022/07/27 05:01:36;;;;;;;7.60;6.70;;;;;;;28.40;43.31;100038.55;1736184;81;22109;-83
2022/07/27 05:04:03;;;;;;;8.65;6.47;;;;;;;28.41;43.34;100036.56;1722686;82;21014;-83
2022/07/27 05:06:31;;;;;;;7.87;6.75;;;;;;;28.41;43.36;100037.37;1723126;82;21659;-82
2022/07/27 05:08:58;;;;;;;7.97;6.75;;;;;;;28.41;43.41;100049.16;1723174;82;21280;-82
2022/07/27 05:11:24;;;;;;;8.03;6.45;;;;;;;28.41;43.36;100053.34;1726533;81;21046;-82
2022/07/27 05:13:51;;;;;;;7.30;6.60;;;;;;;28.40;43.36;100057.33;1754599;80;21028;-82
2022/07/27 05:16:18;;;;;;;8.45;6.67;;;;;;;28.39;43.44;100052.95;1754065;81;21049;-82
2022/07/27 05:18:44;;;;;;;10.23;6.65;;;;;;;28.39;43.45;100061.34;1758440;80;21026;-82
2022/07/27 05:21:11;;;;;;;9.00;6.83;;;;;;;28.38;43.48;100066.13;1753011;80;21058;-82
2022/07/27 05:23:37;;;;;;;9.03;8.05;;;;;;;28.38;43.48;100069.52;1753580;81;21096;-82
2022/07/27 05:26:04;;;;;;;14.87;10.20;;;;;;;28.37;43.51;100074.91;1752335;80;21137;-82
2022/07/27 05:28:30;;;;;;;16.97;11.28;;;;;;;28.36;43.52;100077.48;1739796;80;21069;-82
2022/07/27 05:30:57;;;;;;;15.25;10.58;;;;;;;28.35;43.55;100073.88;1752979;80;21085;-82
2022/07/27 05:33:29;;;;;;;12.03;9.40;;;;;;;28.34;43.56;100072.30;1747062;81;21119;-83
2022/07/27 05:35:55;;;;;;;13.68;10.15;;;;;;;28.34;43.58;100067.30;1722224;82;20999;-83
2022/07/27 05:38:22;;;;;;;10.98;9.30;;;;;;;28.34;43.58;100073.70;1722031;83;21369;-83
2022/07/27 05:40:55;;;;;;;12.50;9.93;;;;;;;28.33;43.58;100072.67;1740039;81;21532;-83
2022/07/27 05:43:21;;;;;;;14.87;10.75;;;;;;;28.34;43.59;100073.70;1727331;81;21097;-83
2022/07/27 05:45:48;;;;;;;16.27;11.75;;;;;;;28.34;43.59;100072.89;1753206;80;21042;-83
2022/07/27 05:48:14;;;;;;;17.05;11.05;;;;;;;28.33;43.63;100074.88;1754370;80;21037;-83
2022/07/27 05:50:40;;;;;;;14.03;11.28;;;;;;;28.33;43.63;100076.28;1753817;81;21119;-83
2022/07/27 05:53:07;;;;;;;14.18;11.20;;;;;;;28.33;43.60;100079.08;1756154;80;21050;-82
2022/07/27 05:55:33;;;;;;;15.55;11.63;;;;;;;28.33;43.61;100072.08;1760316;79;21073;-83
2022/07/27 05:58:00;;;;;;;18.50;11.65;;;;;;;28.33;43.64;100072.67;1758084;80;21034;-83
2022/07/27 06:00:26;;;;;;;19.32;12.82;;;;;;;28.33;43.64;100069.88;1758444;81;20987;-82
2022/07/27 06:02:53;;;;;;;22.05;13.08;;;;;;;28.33;43.65;100075.47;1757766;80;21092;-82
2022/07/27 06:05:19;;;;;;;15.23;11.25;;;;;;;28.32;43.66;100069.07;1758210;80;21852;-82
2022/07/27 06:07:57;;;;;;;14.75;10.85;;;;;;;28.34;43.64;100077.09;1758281;80;21130;-83
2022/07/27 06:10:29;;;;;;;19.70;10.45;;;;;;;28.35;43.65;100071.08;1753318;80;21548;-83
2022/07/27 06:12:55;;;;;;;15.15;11.90;;;;;;;28.34;43.56;100068.69;1758380;80;21069;-83
2022/07/27 06:15:22;;;;;;;23.05;11.00;;;;;;;28.35;43.59;100071.67;1758624;81;21505;-84
2022/07/27 06:17:51;;;;;;;14.03;8.98;;;;;;;28.33;43.44;100074.88;1758716;81;21050;-83
2022/07/27 06:20:17;;;;;;;17.98;8.90;;;;;;;28.33;43.21;100075.47;1759024;80;21519;-83
2022/07/27 06:22:48;;;;;;;11.75;9.35;;;;;;;28.33;42.92;100081.06;1764269;80;20959;-83
2022/07/27 06:25:16;;;;;;;16.20;10.05;;;;;;;28.32;42.83;100079.45;1783381;80;21017;-84
2022/07/27 06:27:42;;;;;;;18.55;8.95;;;;;;;28.33;42.85;100081.06;1790917;78;21287;-83
2022/07/27 06:30:12;;;;;;;14.65;9.53;;;;;;;28.34;42.70;100077.09;1752541;80;21030;-83
2022/07/27 06:32:38;;;;;;;13.00;9.38;;;;;;;28.34;42.63;100077.89;1752458;81;21279;-83
2022/07/27 06:35:07;;;;;;;12.85;9.28;;;;;;;28.33;42.54;100081.88;1747553;81;20999;-83
2022/07/27 06:37:34;;;;;;;11.63;9.58;;;;;;;28.35;42.48;100081.47;1747691;81;21026;-83
2022/07/27 06:40:01;;;;;;;18.82;8.75;;;;;;;28.38;42.31;100084.91;1747965;80;21109;-83
2022/07/27 06:42:27;;;;;;;18.67;9.03;;;;;;;28.39;42.19;100080.30;1753263;80;21046;-83
2022/07/27 06:44:54;;;;;;;15.30;9.55;;;;;;;28.42;41.99;100085.73;1723419;83;21480;-83
2022/07/27 06:47:21;;;;;;;12.75;9.23;;;;;;;28.42;41.98;100080.14;1739279;81;21153;-83
2022/07/27 06:49:47;;;;;;;15.65;9.15;;;;;;;28.42;41.96;100079.55;1677054;82;21059;-83
2022/07/27 06:52:13;;;;;;;15.58;8.68;;;;;;;28.44;41.91;100080.55;1675735;84;21557;-83
2022/07/27 06:54:40;;;;;;;14.47;8.95;;;;;;;28.45;41.89;100077.95;1668154;84;21478;-83
2022/07/27 06:57:06;;;;;;;17.62;9.25;;;;;;;28.45;41.92;100073.17;1668490;84;21107;-83
2022/07/27 06:59:33;;;;;;;18.30;10.00;;;;;;;28.47;41.94;100075.59;1668349;85;21080;-83
2022/07/27 07:02:00;;;;;;;23.85;9.88;;;;;;;28.49;41.94;100070.39;1668278;86;21067;-83
2022/07/27 07:04:26;;;;;;;26.23;9.70;;;;;;;28.49;41.96;100069.80;1668492;84;21073;-83
2022/07/27 07:06:52;;;;;;;14.68;9.73;;;;;;;28.52;41.96;100075.20;1668473;86;21060;-83
2022/07/27 07:09:19;;;;;;;17.45;9.55;;;;;;;28.53;41.95;100074.83;1668194;84;21543;-83
2022/07/27 07:11:46;;;;;;;20.97;9.15;;;;;;;28.56;41.89;100080.23;1668270;84;21060;-83
2022/07/27 07:14:12;;;;;;;16.73;9.35;;;;;;;28.60;41.81;100075.48;1668424;85;21132;-83
2022/07/27 07:16:38;;;;;;;15.58;8.45;;;;;;;28.63;41.64;100071.90;1678089;83;21862;-83
2022/07/27 07:19:05;;;;;;;18.42;9.78;;;;;;;28.66;41.56;100077.30;1730331;81;21040;-83
2022/07/27 07:21:31;;;;;;;14.75;8.70;;;;;;;28.65;41.53;100075.09;1730246;81;21118;-82
2022/07/27 07:23:58;;;;;;;15.65;9.55;;;;;;;28.66;41.56;100079.50;1730066;83;21533;-83
2022/07/27 07:26:24;;;;;;;17.07;8.83;;;;;;;28.69;41.52;100081.52;1704378;83;21064;-82
2022/07/27 07:28:50;;;;;;;10.40;8.75;;;;;;;28.71;41.53;100083.38;1698032;84;21812;-83
2022/07/27 07:31:23;;;;;;;12.23;9.25;;;;;;;28.70;41.54;100085.96;1697529;83;21055;-82
2022/07/27 07:33:49;;;;;;;22.50;9.20;;;;;;;28.70;41.54;100078.96;1697986;83;21075;-83
2022/07/27 07:36:16;;;;;;;10.23;8.58;;;;;;;28.71;41.57;100081.98;1698014;83;21155;-83
2022/07/27 07:38:42;;;;;;;15.72;8.85;;;;;;;28.74;41.51;100078.98;1665264;84;21076;-83
2022/07/27 07:41:11;;;;;;;17.48;9.38;;;;;;;28.75;41.52;100085.59;1693313;83;21072;-82
2022/07/27 07:43:38;;;;;;;17.35;9.23;;;;;;;28.74;41.59;100084.58;1711075;82;21048;-82
2022/07/27 07:46:05;;;;;;;19.92;9.33;;;;;;;28.72;41.63;100090.59;1711521;82;21055;-83
2022/07/27 07:48:31;;;;;;;13.93;9.18;;;;;;;28.71;41.60;100091.77;1711615;83;21491;-83
2022/07/27 07:50:57;;;;;;;18.42;9.95;;;;;;;28.70;41.59;100081.77;1711813;82;21099;-83
2022/07/27 07:53:24;;;;;;;14.00;9.45;;;;;;;28.70;41.66;100085.16;1718883;81;21142;-82
2022/07/27 07:55:51;;;;;;;20.35;10.10;;;;;;;28.69;41.70;100081.52;1732399;81;21355;-82
2022/07/27 07:58:18;;;;;;;14.25;10.13;;;;;;;28.68;41.72;100084.13;1732555;81;20980;-83
2022/07/27 08:00:45;;;;;;;14.90;9.55;;;;;;;28.68;41.70;100082.73;1729857;82;21109;-82
2022/07/27 08:03:11;;;;;;;17.70;9.28;;;;;;;28.70;41.65;100083.75;1722920;81;21053;-82
2022/07/27 08:05:37;;;;;;;16.87;8.43;;;;;;;28.71;41.59;100083.97;1723089;81;21275;-84
2022/07/27 08:08:04;;;;;;;19.62;9.33;;;;;;;28.71;41.63;100086.17;1722911;82;21097;-83
2022/07/27 08:10:31;;;;;;;16.65;8.60;;;;;;;28.72;41.51;100082.78;1722662;82;21449;-83
2022/07/27 08:12:57;;;;;;;12.18;8.30;;;;;;;28.76;41.35;100076.61;1723058;82;21081;-83
2022/07/27 08:15:25;;;;;;;11.65;7.83;;;;;;;28.79;41.31;100081.42;1722814;82;21782;-83
2022/07/27 08:17:52;;;;;;;9.88;8.73;;;;;;;28.79;41.31;100075.22;1715482;82;21150;-83
2022/07/27 08:20:18;;;;;;;15.78;8.40;;;;;;;28.81;41.29;100081.25;1711743;83;20944;-84
2022/07/27 08:22:51;;;;;;;12.63;8.55;;;;;;;28.81;41.20;100079.84;1711512;82;21102;-83
2022/07/27 08:25:17;;;;;;;9.48;7.25;;;;;;;28.83;41.16;100076.64;1711692;82;20999;-83
2022/07/27 08:27:43;;;;;;;12.13;9.03;;;;;;;28.85;41.15;100084.87;1711772;82;21054;-82
2022/07/27 08:30:12;;;;;;;14.30;8.65;;;;;;;28.85;41.10;100079.86;1711243;82;21512;-83
2022/07/27 08:32:59;;;;;;;12.05;8.75;;;;;;;28.85;41.13;100082.08;1711777;82;21083;-82
2022/07/27 08:35:26;;;;;;;12.82;8.85;;;;;;;28.84;41.17;100076.85;1703515;83;21105;-82
2022/07/27 08:37:53;;;;;;;12.80;9.08;;;;;;;28.83;41.25;100084.45;1683091;84;21041;-83
2022/07/27 08:40:20;;;;;;;10.70;8.18;;;;;;;28.81;41.23;100084.64;1731853;82;21081;-84
2022/07/27 08:42:47;;;;;;;10.25;8.23;;;;;;;28.80;41.20;100081.63;1731329;82;21863;-82
2022/07/27 08:45:16;;;;;;;8.20;7.40;;;;;;;28.80;41.05;100088.63;1731490;82;21378;-83
2022/07/27 08:47:44;;;;;;;14.73;8.45;;;;;;;28.85;40.96;100085.47;1730893;82;21060;-84
2022/07/27 08:50:22;;;;;;;14.28;8.15;;;;;;;28.93;40.69;100083.72;1731226;82;21100;-85
2022/07/27 08:53:05;;;;;;;8.68;7.53;;;;;;;29.06;40.41;100085.58;1731888;81;20998;-83
2022/07/27 08:55:35;;;;;;;10.23;8.20;;;;;;;29.14;40.26;100078.81;1750564;82;22072;-83
2022/07/27 08:58:01;;;;;;;14.13;8.55;;;;;;;29.20;40.07;100084.82;1759751;81;21119;-83
2022/07/27 09:00:28;;;;;;;9.23;7.67;;;;;;;29.27;39.95;100082.88;1761008;81;21012;-84
2022/07/27 09:02:54;;;;;;;11.70;8.25;;;;;;;29.26;39.94;100082.66;1760588;81;21090;-83
2022/07/27 09:05:20;;;;;;;12.30;8.53;;;;;;;29.24;39.93;100078.66;1761032;81;21065;-84
2022/07/27 09:07:47;;;;;;;9.90;8.15;;;;;;;29.25;39.85;100080.25;1732939;81;21226;-83
2022/07/27 09:10:32;;;;;;;10.58;8.20;;;;;;;29.29;39.80;100078.29;1760336;81;21665;-82
2022/07/27 09:12:59;;;;;;;8.85;7.50;;;;;;;29.27;39.88;100081.48;1757906;81;21095;-83
2022/07/27 09:15:25;;;;;;;11.15;8.38;;;;;;;29.24;39.92;100078.66;1756137;81;21027;-84
2022/07/27 09:17:52;;;;;;;10.13;8.05;;;;;;;29.22;39.80;100076.84;1726226;80;21185;-83
2022/07/27 09:20:24;;;;;;;8.58;7.67;;;;;;;29.19;39.81;100076.23;1760475;80;21179;-83
2022/07/27 09:22:54;;;;;;;9.63;7.58;;;;;;;29.17;39.86;100075.81;1760358;80;21515;-83
2022/07/27 09:25:27;;;;;;;102.87;14.63;;;;;;;29.22;39.71;100082.44;1760847;81;21147;-83
2022/07/27 09:27:56;;;;;;;25.35;8.70;;;;;;;29.34;39.58;100076.52;1760541;80;21092;-82
2022/07/27 09:30:22;;;;;;;9.90;7.12;;;;;;;29.34;39.49;100077.91;1760770;81;21106;-82
2022/07/27 09:33:00;;;;;;;9.28;7.25;;;;;;;29.32;39.56;100073.32;1742393;81;21994;-83
2022/07/27 09:35:33;;;;;;;8.93;7.53;;;;;;;29.33;39.64;100069.30;1750296;81;21393;-83
2022/07/27 09:38:20;;;;;;;9.28;7.35;;;;;;;29.37;39.46;100075.72;1750234;81;20950;-83
2022/07/27 09:40:49;;;;;;;9.53;7.20;;;;;;;29.45;39.25;100074.57;1750354;80;21097;-83
2022/07/27 09:43:15;;;;;;;7.65;6.87;;;;;;;29.45;39.20;100071.14;1750557;81;21054;-83
2022/07/27 09:45:42;;;;;;;9.38;7.03;;;;;;;29.44;39.14;100072.36;1750094;82;21125;-82
2022/07/27 09:48:21;;;;;;;8.90;6.87;;;;;;;29.45;39.08;100075.97;1750078;81;21050;-82
2022/07/27 09:51:01;;;;;;;7.90;6.87;;;;;;;29.50;38.92;100075.56;1754948;80;21097;-83
2022/07/27 09:53:33;;;;;;;9.90;6.97;;;;;;;29.52;38.81;100068.17;1758870;81;21699;-83
2022/07/27 09:56:09;;;;;;;8.20;7.30;;;;;;;29.44;38.81;100061.16;1758996;80;21456;-83
2022/07/27 09:58:50;;;;;;;9.70;7.17;;;;;;;29.46;38.89;100074.16;1758646;81;21193;-82
2022/07/27 10:01:20;;;;;;;7.78;6.97;;;;;;;29.49;38.79;100068.38;1758780;81;21105;-83
2022/07/27 10:03:49;;;;;;;9.48;7.37;;;;;;;29.62;38.36;100068.18;1757997;81;20999;-83
2022/07/27 10:06:16;;;;;;;8.63;7.72;;;;;;;29.71;38.20;100063.59;1759291;81;21101;-84
2022/07/27 10:08:45;;;;;;;8.48;7.20;;;;;;;29.69;38.15;100061.21;1758604;80;21076;-84
2022/07/27 10:11:12;;;;;;;7.28;6.58;;;;;;;29.66;38.18;100052.20;1758090;80;21182;-83
2022/07/27 10:13:45;;;;;;;8.25;6.58;;;;;;;29.65;38.25;100053.98;1731336;81;20986;-82
2022/07/27 10:16:18;;;;;;;8.08;7.35;;;;;;;29.63;38.31;100050.77;1752544;81;21361;-84
2022/07/27 10:19:07;;;;;;;10.43;6.75;;;;;;;29.64;38.20;100053.19;1735963;80;21113;-83
2022/07/27 10:21:35;;;;;;;8.88;7.25;;;;;;;29.66;38.13;100045.19;1759616;80;21003;-83
2022/07/27 10:24:06;;;;;;;9.88;7.12;;;;;;;29.70;38.00;100049.40;1758993;80;21192;-83
2022/07/27 10:26:40;;;;;;;8.63;7.42;;;;;;;29.73;37.89;100046.59;1757398;80;21067;-83
2022/07/27 10:29:16;;;;;;;9.63;6.97;;;;;;;29.74;37.89;100046.00;1734009;81;21053;-83
2022/07/27 10:31:59;;;;;;;7.00;6.30;;;;;;;29.71;37.85;100048.17;1726206;80;21065;-83
2022/07/27 10:34:39;;;;;;;8.30;7.40;;;;;;;29.74;37.79;100044.59;1712933;82;21058;-84
2022/07/27 10:37:18;;;;;;;8.78;7.25;;;;;;;29.74;37.78;100041.80;1722086;81;21581;-83
2022/07/27 10:42:38;;;;;;;8.18;6.47;;;;;;;29.70;37.73;100033.98;1711419;82;21125;-83
2022/07/27 10:45:15;;;;;;;6.97;6.28;;;;;;;29.67;37.93;100036.16;1711708;82;21047;-82
2022/07/27 10:47:44;;;;;;;8.08;7.28;;;;;;;29.64;37.95;100030.75;1700533;83;21404;-83
2022/07/27 10:50:18;;;;;;;11.55;6.92;;;;;;;29.62;38.02;100030.97;1711728;82;21843;-83
2022/07/27 10:52:48;;;;;;;9.28;6.90;;;;;;;29.63;38.07;100032.55;1712042;82;21032;-84
2022/07/27 10:55:36;;;;;;;16.55;7.30;;;;;;;29.68;38.03;100034.96;1715488;82;21097;-83
2022/07/27 10:58:17;;;;;;;9.63;7.30;;;;;;;29.71;37.77;100034.16;1716622;82;21019;-83
2022/07/27 11:00:55;;;;;;;9.65;6.92;;;;;;;29.76;37.41;100033.17;1716595;82;21035;-84
2022/07/27 11:03:33;;;;;;;9.83;7.20;;;;;;;29.82;37.23;100041.41;1719484;83;21136;-83
2022/07/27 11:06:06;;;;;;;7.58;6.78;;;;;;;29.85;37.21;100034.98;1725447;81;20930;-83
2022/07/27 11:08:41;;;;;;;9.48;7.35;;;;;;;29.86;37.08;100032.99;1725899;81;21648;-84
2022/07/27 11:11:14;;;;;;;9.98;7.28;;;;;;;29.89;37.06;100036.42;1725441;81;21066;-84
2022/07/27 11:13:42;;;;;;;9.05;6.75;;;;;;;29.89;36.99;100029.41;1725173;81;21025;-83
2022/07/27 11:16:10;;;;;;;9.73;6.90;;;;;;;29.92;36.90;100030.00;1725767;81;21178;-83
2022/07/27 11:18:38;;;;;;;8.48;7.08;;;;;;;29.93;36.82;100035.22;1725521;81;21010;-83
2022/07/27 11:21:21;;;;;;;7.58;6.75;;;;;;;29.98;36.72;100040.23;1725797;82;21057;-84
2022/07/27 11:23:57;;;;;;;9.38;7.15;;;;;;;29.96;36.76;100033.61;1725765;82;21117;-84
2022/07/27 11:26:28;;;;;;;8.65;6.47;;;;;;;29.91;36.74;100027.83;1718374;82;21579;-84
2022/07/27 11:28:54;;;;;;;8.20;7.33;;;;;;;29.89;36.76;100030.81;1725654;82;21160;-83
2022/07/27 11:31:21;;;;;;;8.68;7.78;;;;;;;29.87;36.75;100027.63;1725780;81;21014;-83
2022/07/27 11:33:53;;;;;;;7.80;7.00;;;;;;;29.87;36.73;100029.80;1725974;83;21140;-83